createdAt,value
2019-03-17T00:01:57.049Z,7.98
2019-03-17T00:04:30.684Z,8.00
2019-03-17T00:06:50.264Z,8.06
2019-03-17T00:09:21.867Z,8.03
2019-03-17T00:11:51.079Z,7.97
2019-03-17T00:14:20.347Z,8.03
2019-03-17T00:16:49.542Z,7.95
2019-03-17T00:19:20.768Z,7.94
2019-03-17T00:21:53.337Z,7.99
2019-03-17T00:24:25.327Z,8.07
2019-03-17T00:26:56.394Z,8.15
2019-03-17T00:29:25.650Z,8.09
2019-03-17T00:31:54.999Z,8.15
2019-03-17T00:34:24.166Z,8.20
2019-03-17T00:36:53.561Z,8.08
2019-03-17T00:39:48.868Z,8.23
2019-03-17T00:42:18.331Z,8.24
2019-03-17T00:44:55.626Z,8.17
2019-03-17T00:47:26.631Z,8.18
2019-03-17T00:49:56.838Z,8.10
2019-03-17T00:52:51.324Z,8.13
2019-03-17T00:55:31.752Z,8.19
2019-03-17T00:58:00.946Z,8.09
2019-03-17T01:00:32.184Z,8.17
2019-03-17T01:03:01.503Z,8.08
2019-03-17T01:05:31.432Z,8.12
2019-03-17T01:08:01.043Z,8.24
2019-03-17T01:10:30.249Z,8.18
2019-03-17T01:12:59.619Z,8.19
2019-03-17T01:15:28.842Z,8.34
2019-03-17T01:17:58.333Z,8.20
2019-03-17T01:20:27.704Z,8.21
2019-03-17T01:22:57.001Z,8.32
2019-03-17T01:25:26.241Z,8.27
2019-03-17T01:27:55.377Z,8.18
2019-03-17T01:30:31.443Z,8.22
2019-03-17T01:33:00.276Z,8.19
2019-03-17T01:35:37.054Z,8.16
2019-03-17T01:38:37.527Z,8.18
2019-03-17T01:41:06.891Z,8.23
2019-03-17T01:43:36.560Z,8.28
2019-03-17T01:46:05.925Z,8.31
2019-03-17T01:48:50.261Z,8.28
2019-03-17T01:51:19.444Z,8.22
2019-03-17T01:53:48.963Z,8.17
2019-03-17T01:56:18.230Z,8.15
2019-03-17T01:58:47.657Z,8.03
2019-03-17T02:01:21.106Z,8.10
2019-03-17T02:03:50.356Z,8.12
2019-03-17T02:06:19.654Z,8.04
2019-03-17T02:08:52.995Z,8.03
2019-03-17T02:11:22.255Z,8.04
2019-03-17T02:13:56.137Z,8.10
2019-03-17T02:16:30.803Z,8.07
2019-03-17T02:19:00.543Z,8.07
2019-03-17T02:21:30.605Z,8.10
2019-03-17T02:23:59.784Z,8.13
2019-03-17T02:26:29.150Z,8.09
2019-03-17T02:29:06.649Z,8.11
2019-03-17T02:31:33.093Z,7.95
2019-03-17T02:34:02.322Z,8.03
2019-03-17T02:36:36.564Z,8.07
2019-03-17T02:39:08.025Z,8.00
2019-03-17T02:41:37.245Z,7.93
2019-03-17T02:44:06.599Z,7.95
2019-03-17T02:46:35.851Z,7.92
2019-03-17T02:49:05.449Z,7.99
2019-03-17T02:51:34.596Z,8.01
2019-03-17T02:54:03.838Z,7.99
2019-03-17T02:56:33.090Z,7.95
2019-03-17T02:59:02.301Z,7.77
2019-03-17T03:01:31.529Z,7.80
2019-03-17T03:04:01.065Z,7.71
2019-03-17T03:06:30.203Z,7.81
2019-03-17T03:08:59.483Z,7.79
2019-03-17T03:11:28.737Z,7.82
2019-03-17T03:13:58.244Z,7.89
2019-03-17T03:16:27.412Z,7.92
2019-03-17T03:18:56.601Z,8.01
2019-03-17T03:21:25.844Z,7.93
2019-03-17T03:23:55.101Z,7.89
2019-03-17T03:26:24.212Z,7.97
2019-03-17T03:28:53.556Z,7.90
2019-03-17T03:31:22.749Z,7.90
2019-03-17T03:33:52.360Z,7.97
2019-03-17T03:36:21.536Z,7.97
2019-03-17T03:38:55.521Z,7.98
2019-03-17T03:41:24.891Z,7.95
2019-03-17T03:43:54.119Z,7.92
2019-03-17T03:46:23.457Z,7.92
2019-03-17T03:49:18.747Z,8.01
2019-03-17T03:51:39.288Z,8.03
2019-03-17T03:54:08.930Z,7.99
2019-03-17T03:56:48.636Z,7.90
2019-03-17T03:59:17.956Z,7.96
2019-03-17T04:01:47.177Z,8.08
2019-03-17T04:04:16.325Z,7.97
2019-03-17T04:06:45.445Z,8.07
2019-03-17T04:09:14.602Z,7.93
2019-03-17T04:11:44.087Z,7.87
2019-03-17T04:14:13.337Z,7.85
2019-03-17T04:16:42.490Z,7.77
2019-03-17T04:19:11.703Z,7.73
2019-03-17T04:21:40.868Z,7.71
2019-03-17T04:24:10.083Z,7.66
2019-03-17T04:26:39.198Z,7.74
2019-03-17T04:29:08.331Z,7.66
2019-03-17T04:31:37.763Z,7.75
2019-03-17T04:34:06.883Z,7.63
2019-03-17T04:36:40.549Z,7.59
2019-03-17T04:39:08.071Z,7.62
2019-03-17T04:41:37.195Z,7.56
2019-03-17T04:44:06.310Z,7.62
2019-03-17T04:46:35.456Z,7.55
2019-03-17T04:49:04.690Z,7.75
2019-03-17T04:51:33.889Z,7.74
2019-03-17T04:54:03.290Z,7.62
2019-03-17T04:56:32.525Z,7.59
2019-03-17T04:59:01.650Z,7.68
2019-03-17T05:01:31.127Z,7.59
2019-03-17T05:04:00.253Z,7.52
2019-03-17T05:06:29.414Z,7.47
2019-03-17T05:08:58.529Z,7.54
2019-03-17T05:11:27.685Z,7.64
2019-03-17T05:13:56.819Z,7.82
2019-03-17T05:16:26.280Z,7.88
2019-03-17T05:18:55.406Z,7.93
2019-03-17T05:21:24.563Z,7.75
2019-03-17T05:23:53.716Z,7.76
2019-03-17T05:26:22.891Z,7.72
2019-03-17T05:28:52.020Z,7.99
2019-03-17T05:31:21.244Z,7.78
2019-03-17T05:33:50.382Z,7.84
2019-03-17T05:36:19.777Z,7.78
2019-03-17T05:38:49.345Z,7.66
2019-03-17T05:41:18.532Z,7.66
2019-03-17T05:43:47.665Z,7.75
2019-03-17T05:46:16.894Z,7.75
2019-03-17T05:48:46.061Z,7.72
2019-03-17T05:51:15.240Z,7.63
2019-03-17T05:53:44.350Z,7.59
2019-03-17T05:56:13.555Z,7.61
2019-03-17T05:58:42.659Z,7.53
2019-03-17T06:01:11.876Z,7.66
2019-03-17T06:03:41.313Z,7.61
2019-03-17T06:06:10.563Z,7.62
2019-03-17T06:08:39.608Z,7.58
2019-03-17T06:11:08.910Z,7.63
2019-03-17T06:13:38.077Z,7.68
2019-03-17T06:16:07.678Z,7.75
2019-03-17T06:18:36.984Z,7.80
2019-03-17T06:21:06.117Z,7.87
2019-03-17T06:23:35.248Z,8.00
2019-03-17T06:26:04.408Z,8.07
2019-03-17T06:28:33.526Z,8.12
2019-03-17T06:31:02.665Z,8.13
2019-03-17T06:33:31.945Z,8.08
2019-03-17T06:36:01.111Z,8.05
2019-03-17T06:38:30.239Z,8.07
2019-03-17T06:40:59.362Z,8.12
2019-03-17T06:43:28.514Z,8.12
2019-03-17T06:45:57.642Z,8.21
2019-03-17T06:48:27.194Z,8.36
2019-03-17T06:50:56.341Z,8.57
2019-03-17T06:53:25.543Z,8.62
2019-03-17T06:55:54.824Z,8.62
2019-03-17T06:58:23.998Z,8.67
2019-03-17T07:00:53.197Z,8.62
2019-03-17T07:03:22.313Z,8.60
2019-03-17T07:05:51.460Z,8.64
2019-03-17T07:08:20.608Z,8.51
2019-03-17T07:10:49.942Z,8.55
2019-03-17T07:13:19.111Z,8.57
2019-03-17T07:15:48.282Z,8.52
2019-03-17T07:18:17.511Z,8.49
2019-03-17T07:20:46.774Z,8.51
2019-03-17T07:23:15.969Z,8.52
2019-03-17T07:25:45.338Z,8.53
2019-03-17T07:28:14.583Z,8.50
2019-03-17T07:30:44.175Z,8.50
2019-03-17T07:33:13.345Z,8.54
2019-03-17T07:35:42.469Z,8.65
2019-03-17T07:38:11.844Z,8.51
2019-03-17T07:40:41.518Z,8.51
2019-03-17T07:43:10.958Z,8.55
2019-03-17T07:45:40.295Z,8.62
2019-03-17T07:48:09.439Z,8.57
2019-03-17T07:50:38.650Z,8.49
2019-03-17T07:53:07.870Z,8.65
2019-03-17T07:55:37.312Z,8.65
2019-03-17T07:58:06.466Z,8.60
2019-03-17T08:00:35.599Z,8.64
2019-03-17T08:03:04.760Z,8.64
2019-03-17T08:05:33.866Z,8.66
2019-03-17T08:08:09.328Z,8.62
2019-03-17T08:10:33.877Z,8.64
2019-03-17T08:13:03.030Z,8.54
2019-03-17T08:15:32.185Z,8.52
2019-03-17T08:18:01.315Z,8.52
2019-03-17T08:20:30.469Z,8.61
2019-03-17T08:22:59.604Z,8.62
2019-03-17T08:25:28.733Z,8.51
2019-03-17T08:27:58.142Z,8.72
2019-03-17T08:30:27.241Z,8.85
2019-03-17T08:32:56.403Z,8.81
2019-03-17T08:35:25.518Z,8.95
2019-03-17T08:37:54.746Z,8.99
2019-03-17T08:40:24.142Z,9.09
2019-03-17T08:42:53.664Z,9.13
2019-03-17T08:45:23.017Z,9.28
2019-03-17T08:47:57.759Z,9.28
2019-03-17T08:50:23.407Z,9.18
2019-03-17T08:52:52.570Z,9.17
2019-03-17T08:55:22.643Z,9.25
2019-03-17T08:57:51.830Z,9.34
2019-03-17T09:00:20.980Z,9.51
2019-03-17T09:02:50.311Z,9.49
2019-03-17T09:05:19.427Z,9.38
2019-03-17T09:07:48.601Z,9.46
2019-03-17T09:10:17.801Z,9.31
2019-03-17T09:12:46.955Z,9.34
2019-03-17T09:15:16.067Z,9.30
2019-03-17T09:17:45.356Z,9.39
2019-03-17T09:20:14.657Z,9.30
2019-03-17T09:22:43.815Z,9.01
2019-03-17T09:25:13.375Z,9.22
2019-03-17T09:27:42.657Z,9.13
2019-03-17T09:30:12.885Z,9.14
2019-03-17T09:32:42.038Z,9.14
2019-03-17T09:35:12.079Z,8.97
2019-03-17T09:37:42.306Z,8.93
2019-03-17T09:40:12.321Z,8.96
2019-03-17T09:42:41.494Z,8.96
2019-03-17T09:45:11.248Z,8.89
2019-03-17T09:47:41.400Z,9.10
2019-03-17T09:50:11.085Z,9.04
2019-03-17T09:52:40.216Z,8.85
2019-03-17T09:55:09.867Z,8.85
2019-03-17T09:57:39.344Z,8.83
2019-03-17T10:00:10.100Z,8.89
2019-03-17T10:02:39.292Z,8.98
2019-03-17T10:05:09.141Z,9.12
2019-03-17T10:07:38.291Z,9.10
2019-03-17T10:10:08.453Z,9.10
2019-03-17T10:12:37.821Z,9.18
2019-03-17T10:15:08.484Z,9.10
2019-03-17T10:17:37.783Z,9.07
2019-03-17T10:20:08.390Z,8.96
2019-03-17T10:22:39.812Z,8.96
2019-03-17T10:25:09.574Z,9.01
2019-03-17T10:27:38.697Z,9.19
2019-03-17T10:30:09.083Z,8.97
2019-03-17T10:32:38.368Z,8.97
2019-03-17T10:35:07.526Z,9.22
2019-03-17T10:37:36.718Z,9.07
2019-03-17T10:40:07.037Z,9.11
2019-03-17T10:42:36.228Z,9.03
2019-03-17T10:45:05.731Z,9.03
2019-03-17T10:47:35.046Z,8.98
2019-03-17T10:50:04.681Z,8.98
2019-03-17T10:52:33.926Z,8.65
2019-03-17T10:55:03.152Z,7.95
2019-03-17T10:57:32.360Z,7.39
2019-03-17T11:00:01.736Z,7.17
2019-03-17T11:02:30.838Z,7.15
2019-03-17T11:05:00.337Z,6.93
2019-03-17T11:07:29.483Z,6.77
2019-03-17T11:09:58.661Z,6.64
2019-03-17T11:12:28.131Z,6.63
2019-03-17T11:14:57.246Z,6.50
2019-03-17T11:17:47.436Z,6.23
2019-03-17T11:24:12.756Z,6.29
2019-03-17T11:26:42.180Z,6.32
2019-03-17T11:29:11.297Z,6.24
2019-03-17T11:31:40.431Z,6.40
2019-03-17T11:34:11.350Z,6.51
2019-03-17T11:36:41.002Z,6.44
2019-03-17T11:39:10.230Z,6.45
2019-03-17T11:41:39.320Z,6.50
2019-03-17T11:44:09.575Z,6.45
2019-03-17T11:46:38.705Z,6.41
2019-03-17T11:49:07.985Z,6.60
2019-03-17T11:51:37.081Z,6.67
2019-03-17T11:54:06.219Z,6.64
2019-03-17T11:56:35.320Z,6.70
2019-03-17T11:59:04.662Z,6.93
2019-03-17T12:01:34.110Z,6.99
2019-03-17T12:04:03.326Z,6.89
2019-03-17T12:06:32.535Z,7.04
2019-03-17T12:09:04.703Z,7.07
2019-03-17T12:11:33.930Z,7.20
2019-03-17T12:14:03.046Z,7.32
2019-03-17T12:16:32.190Z,7.28
2019-03-17T12:19:01.442Z,7.31
2019-03-17T12:21:30.642Z,7.34
2019-03-17T12:23:59.919Z,7.59
2019-03-17T12:26:29.068Z,7.67
2019-03-17T12:28:58.267Z,7.50
2019-03-17T12:31:29.195Z,7.67
2019-03-17T12:33:58.201Z,7.52
2019-03-17T12:36:27.372Z,7.64
2019-03-17T12:38:56.442Z,7.71
2019-03-17T12:41:25.503Z,7.95
2019-03-17T12:43:54.684Z,7.76
2019-03-17T12:46:23.756Z,7.88
2019-03-17T12:48:52.880Z,7.73
2019-03-17T12:51:21.989Z,8.00
2019-03-17T12:53:51.096Z,7.92
2019-03-17T12:56:20.321Z,7.99
2019-03-17T12:58:49.394Z,8.23
2019-03-17T13:01:18.503Z,8.10
2019-03-17T13:03:48.920Z,8.10
2019-03-17T13:06:18.069Z,8.07
2019-03-17T13:08:47.245Z,8.30
2019-03-17T13:11:16.612Z,8.33
2019-03-17T13:13:45.812Z,8.33
2019-03-17T13:16:14.913Z,8.13
2019-03-17T13:18:43.948Z,8.03
2019-03-17T13:21:13.180Z,8.09
2019-03-17T13:23:47.722Z,7.93
2019-03-17T13:26:16.946Z,7.72
2019-03-17T13:28:46.155Z,7.69
2019-03-17T13:31:15.794Z,7.66
2019-03-17T13:33:44.897Z,5.57
2019-03-17T13:36:14.511Z,5.19
2019-03-17T13:38:43.694Z,4.84
2019-03-17T13:41:12.958Z,4.80
2019-03-17T13:43:42.503Z,5.07
2019-03-17T13:46:11.871Z,5.15
2019-03-17T13:48:43.842Z,5.23
2019-03-17T13:51:13.100Z,5.41
2019-03-17T13:53:43.910Z,5.57
2019-03-17T13:56:13.301Z,5.61
2019-03-17T13:58:42.623Z,5.81
2019-03-17T14:01:13.873Z,5.76
2019-03-17T14:03:45.351Z,5.81
2019-03-17T14:06:15.494Z,5.87
2019-03-17T14:08:45.014Z,5.94
2019-03-17T14:11:14.133Z,6.14
2019-03-17T14:13:46.008Z,6.17
2019-03-17T14:16:19.288Z,6.15
2019-03-17T14:18:53.062Z,6.21
2019-03-17T14:21:24.397Z,6.19
2019-03-17T14:23:53.448Z,6.17
2019-03-17T14:26:22.594Z,6.48
2019-03-17T14:28:51.827Z,6.54
2019-03-17T14:31:21.129Z,6.46
2019-03-17T14:33:50.420Z,6.66
2019-03-17T14:36:19.693Z,6.91
2019-03-17T14:38:48.972Z,6.86
2019-03-17T14:41:18.103Z,6.98
2019-03-17T14:43:47.309Z,7.01
2019-03-17T14:46:16.697Z,7.09
2019-03-17T14:48:45.935Z,7.05
2019-03-17T14:51:15.161Z,7.05
2019-03-17T14:53:44.276Z,7.33
2019-03-17T14:56:13.586Z,7.28
2019-03-17T14:58:42.738Z,7.37
2019-03-17T15:01:11.880Z,7.30
2019-03-17T15:03:40.959Z,7.17
2019-03-17T15:06:10.034Z,7.23
2019-03-17T15:08:39.379Z,7.09
2019-03-17T15:11:08.518Z,7.14
2019-03-17T15:13:37.548Z,7.20
2019-03-17T15:16:06.940Z,7.22
2019-03-17T15:18:36.043Z,7.36
2019-03-17T15:21:05.333Z,7.42
2019-03-17T15:23:34.563Z,7.46
2019-03-17T15:26:03.652Z,7.46
2019-03-17T15:28:32.761Z,7.55
2019-03-17T15:31:11.547Z,7.62
2019-03-17T15:33:32.779Z,7.54
2019-03-17T15:36:01.993Z,7.58
2019-03-17T15:38:31.522Z,7.70
2019-03-17T15:41:00.621Z,7.68
2019-03-17T15:43:29.733Z,7.70
2019-03-17T15:45:58.827Z,7.49
2019-03-17T15:48:27.953Z,7.44
2019-03-17T15:50:57.052Z,7.22
2019-03-17T15:53:26.146Z,7.15
2019-03-17T15:55:55.273Z,7.09
2019-03-17T15:58:24.311Z,7.16
2019-03-17T16:00:53.418Z,7.11
2019-03-17T16:03:22.571Z,6.96
2019-03-17T16:05:51.760Z,7.03
2019-03-17T16:08:20.991Z,7.11
2019-03-17T16:10:50.109Z,7.19
2019-03-17T16:13:19.148Z,7.16
2019-03-17T16:15:48.908Z,7.00
2019-03-17T16:18:18.008Z,6.84
2019-03-17T16:20:47.007Z,6.78
2019-03-17T16:23:16.273Z,6.75
2019-03-17T16:25:45.657Z,6.71
2019-03-17T16:28:15.031Z,6.62
2019-03-17T16:30:44.168Z,6.43
2019-03-17T16:33:13.480Z,6.28
2019-03-17T16:35:42.704Z,6.17
2019-03-17T16:38:12.005Z,6.08
2019-03-17T16:40:41.211Z,6.06
2019-03-17T16:43:10.714Z,5.93
2019-03-17T16:45:39.950Z,5.99
2019-03-17T16:48:09.304Z,5.94
2019-03-17T16:50:38.648Z,5.94
2019-03-17T16:53:07.850Z,5.96
2019-03-17T16:55:36.971Z,6.00
2019-03-17T16:58:06.140Z,5.97
2019-03-17T17:00:35.359Z,5.86
2019-03-17T17:03:04.535Z,5.87
2019-03-17T17:05:35.173Z,5.76
2019-03-17T17:08:04.680Z,5.67
2019-03-17T17:10:33.753Z,5.63
2019-03-17T17:13:03.197Z,5.51
2019-03-17T17:15:32.362Z,5.56
2019-03-17T17:18:01.515Z,5.51
2019-03-17T17:20:30.645Z,5.48
2019-03-17T17:23:00.017Z,5.50
2019-03-17T17:25:29.115Z,5.43
2019-03-17T17:27:58.278Z,5.48
2019-03-17T17:30:27.371Z,5.40
2019-03-17T17:32:56.488Z,5.36
2019-03-17T17:35:25.611Z,5.41
2019-03-17T17:37:54.666Z,5.32
2019-03-17T17:40:23.757Z,5.30
2019-03-17T17:42:52.864Z,5.32
2019-03-17T17:45:21.960Z,5.32
2019-03-17T17:47:51.153Z,5.35
2019-03-17T17:50:20.204Z,5.22
2019-03-17T17:52:49.596Z,5.19
2019-03-17T17:55:18.830Z,5.16
2019-03-17T17:57:47.981Z,5.08
2019-03-17T18:00:20.163Z,5.11
2019-03-17T18:02:49.662Z,5.12
2019-03-17T18:05:18.830Z,5.10
2019-03-17T18:07:48.003Z,5.08
2019-03-17T18:10:17.244Z,5.14
2019-03-17T18:12:46.398Z,5.05
2019-03-17T18:15:17.178Z,5.10
2019-03-17T18:17:46.288Z,5.07
2019-03-17T18:20:15.400Z,4.99
2019-03-17T18:22:44.537Z,5.02
2019-03-17T18:25:14.707Z,4.99
2019-03-17T18:27:43.852Z,4.97
2019-03-17T18:30:14.487Z,4.94
2019-03-17T18:32:44.119Z,4.99
2019-03-17T18:35:13.384Z,4.81
2019-03-17T18:37:42.655Z,4.84
2019-03-17T18:40:12.844Z,4.73
2019-03-17T18:42:41.960Z,4.56
2019-03-17T18:45:13.551Z,4.74
2019-03-17T18:47:42.955Z,4.65
2019-03-17T18:50:20.300Z,4.51
2019-03-17T18:52:43.158Z,4.63
2019-03-17T18:55:12.335Z,4.47
2019-03-17T18:57:41.403Z,4.32
2019-03-17T19:00:13.601Z,4.26
2019-03-17T19:02:42.757Z,4.23
2019-03-17T19:05:12.387Z,4.01
2019-03-17T19:07:41.502Z,3.97
2019-03-17T19:10:11.161Z,3.90
2019-03-17T19:12:45.403Z,3.73
2019-03-17T19:15:12.874Z,3.69
2019-03-17T19:17:41.983Z,3.70
2019-03-17T19:20:12.425Z,3.84
2019-03-17T19:22:41.780Z,4.12
2019-03-17T19:25:12.056Z,3.85
2019-03-17T19:27:41.275Z,3.88
2019-03-17T19:30:11.973Z,3.79
2019-03-17T19:32:41.112Z,3.76
2019-03-17T19:35:10.610Z,3.75
2019-03-17T19:37:40.027Z,3.78
2019-03-17T19:40:10.849Z,3.84
2019-03-17T19:42:40.302Z,3.97
2019-03-17T19:45:09.566Z,3.95
2019-03-17T19:47:38.880Z,4.15
2019-03-17T19:50:08.739Z,4.50
2019-03-17T19:52:37.954Z,4.59
2019-03-17T19:55:07.498Z,4.60
2019-03-17T19:57:37.278Z,4.61
2019-03-17T20:00:06.806Z,4.76
2019-03-17T20:02:35.833Z,4.83
2019-03-17T20:05:05.201Z,4.96
2019-03-17T20:07:34.316Z,4.83
2019-03-17T20:10:03.429Z,4.86
2019-03-17T20:12:32.887Z,4.81
2019-03-17T20:15:02.256Z,4.92
2019-03-17T20:17:31.724Z,4.90
2019-03-17T20:20:00.798Z,4.86
2019-03-17T20:22:30.095Z,4.82
2019-03-17T20:24:59.124Z,4.70
2019-03-17T20:27:30.848Z,4.66
2019-03-17T20:29:59.902Z,4.64
2019-03-17T20:32:28.974Z,4.65
2019-03-17T20:34:58.114Z,4.64
2019-03-17T20:37:27.205Z,4.72
2019-03-17T20:39:56.305Z,4.58
2019-03-17T20:42:25.418Z,4.54
2019-03-17T20:45:00.375Z,4.55
2019-03-17T20:47:39.965Z,4.53
2019-03-17T20:50:10.368Z,4.51
2019-03-17T20:52:39.592Z,4.54
2019-03-17T20:55:09.086Z,4.46
2019-03-17T20:57:38.259Z,4.38
2019-03-17T21:00:09.600Z,4.41
2019-03-17T21:02:38.872Z,4.51
2019-03-17T21:05:09.273Z,4.43
2019-03-17T21:07:38.565Z,4.44
2019-03-17T21:10:09.114Z,4.34
2019-03-17T21:12:38.363Z,4.40
2019-03-17T21:15:08.703Z,4.43
2019-03-17T21:17:37.973Z,4.43
2019-03-17T21:20:09.039Z,4.41
2019-03-17T21:22:38.236Z,4.48
2019-03-17T21:25:07.531Z,4.46
2019-03-17T21:27:36.831Z,4.57
2019-03-17T21:30:09.028Z,4.45
2019-03-17T21:32:38.324Z,4.49
2019-03-17T21:35:07.632Z,4.43
2019-03-17T21:37:36.997Z,4.42
2019-03-17T21:40:06.314Z,4.51
2019-03-17T21:42:35.443Z,4.63
2019-03-17T21:45:04.685Z,4.46
2019-03-17T21:47:33.845Z,4.48
2019-03-17T21:50:02.951Z,4.59
2019-03-17T21:52:32.141Z,4.53
2019-03-17T21:55:01.194Z,4.61
2019-03-17T21:57:30.322Z,4.57
2019-03-17T21:59:59.552Z,4.76
2019-03-17T22:02:28.463Z,4.57
2019-03-17T22:04:57.612Z,4.63
2019-03-17T22:07:27.025Z,4.61
2019-03-17T22:09:56.095Z,4.63
2019-03-17T22:12:25.132Z,4.56
2019-03-17T22:14:54.166Z,4.62
2019-03-17T22:17:23.236Z,4.61
2019-03-17T22:19:52.313Z,4.64
2019-03-17T22:22:21.413Z,4.73
2019-03-17T22:24:50.528Z,4.67
2019-03-17T22:27:20.516Z,4.61
2019-03-17T22:29:49.963Z,4.56
2019-03-17T22:32:19.392Z,4.52
2019-03-17T22:34:49.490Z,4.40
2019-03-17T22:37:19.591Z,4.46
2019-03-17T22:39:50.554Z,4.44
2019-03-17T22:42:31.843Z,4.49
2019-03-17T22:45:07.537Z,4.33
2019-03-17T22:47:37.821Z,4.42
2019-03-17T22:50:10.369Z,4.18
2019-03-17T22:52:44.274Z,4.23
2019-03-17T22:55:15.089Z,4.19
2019-03-17T22:57:48.369Z,4.15
2019-03-17T23:00:22.703Z,4.25
2019-03-17T23:02:52.396Z,4.25
2019-03-17T23:05:23.319Z,4.28
2019-03-17T23:07:55.795Z,4.32
2019-03-17T23:10:28.413Z,4.22
2019-03-17T23:13:00.394Z,4.14
2019-03-17T23:15:30.919Z,4.20
2019-03-17T23:18:03.069Z,4.17
2019-03-17T23:20:39.616Z,4.18
2019-03-17T23:23:11.207Z,4.15
2019-03-17T23:25:44.039Z,4.17
2019-03-17T23:28:13.758Z,4.04
2019-03-17T23:30:44.441Z,4.05
2019-03-17T23:33:16.911Z,3.99
2019-03-17T23:35:49.408Z,3.95
2019-03-17T23:38:18.880Z,4.07
2019-03-17T23:40:48.896Z,4.10
2019-03-17T23:43:19.693Z,4.09
2019-03-17T23:45:50.662Z,3.97
2019-03-17T23:48:21.737Z,3.95
2019-03-17T23:50:51.695Z,3.98
2019-03-17T23:53:23.829Z,3.93
2019-03-17T23:55:54.403Z,3.91
2019-03-17T23:58:25.820Z,4.02
